sensor_id;sensor_type;location;lat;lon;timestamp;pressure;altitude;pressure_sealevel;temperature;humidity
51261;BME280;61705;46.228;24.812;2023-12-07T00:00:54;97252.94;;;0.94;100.00
51261;BME280;61705;46.228;24.812;2023-12-07T00:03:22;97248.59;;;0.96;100.00
51261;BME280;61705;46.228;24.812;2023-12-07T00:05:57;97253.84;;;0.93;100.00
51261;BME280;61705;46.228;24.812;2023-12-07T00:08:23;97257.25;;;0.95;100.00
51261;BME280;61705;46.228;24.812;2023-12-07T00:10:51;97255.47;;;1.00;100.00
51261;BME280;61705;46.228;24.812;2023-12-07T00:13:18;97250.22;;;1.02;100.00
51261;BME280;61705;46.228;24.812;2023-12-07T00:15:44;97252.81;;;1.03;100.00
51261;BME280;61705;46.228;24.812;2023-12-07T00:18:14;97262.28;;;1.07;100.00
51261;BME280;61705;46.228;24.812;2023-12-07T00:20:40;97257.97;;;1.06;100.00
51261;BME280;61705;46.228;24.812;2023-12-07T00:23:07;97260.53;;;1.08;100.00
51261;BME280;61705;46.228;24.812;2023-12-07T00:25:34;97255.38;;;1.05;100.00
51261;BME280;61705;46.228;24.812;2023-12-07T00:28:03;97263.09;;;1.09;100.00
51261;BME280;61705;46.228;24.812;2023-12-07T00:30:32;97264.00;;;1.10;100.00
51261;BME280;61705;46.228;24.812;2023-12-07T00:33:02;97270.88;;;1.14;100.00
51261;BME280;61705;46.228;24.812;2023-12-07T00:35:32;97272.63;;;1.13;100.00
51261;BME280;61705;46.228;24.812;2023-12-07T00:37:58;97270.88;;;1.14;100.00
51261;BME280;61705;46.228;24.812;2023-12-07T00:40:25;97271.72;;;1.14;100.00
51261;BME280;61705;46.228;24.812;2023-12-07T00:42:52;97275.22;;;1.13;100.00
51261;BME280;61705;46.228;24.812;2023-12-07T00:45:21;97276.97;;;1.13;100.00
51261;BME280;61705;46.228;24.812;2023-12-07T00:47:48;97269.97;;;1.15;100.00
51261;BME280;61705;46.228;24.812;2023-12-07T00:50:15;97279.44;;;1.19;100.00
51261;BME280;61705;46.228;24.812;2023-12-07T00:52:41;97282.16;;;1.11;100.00
51261;BME280;61705;46.228;24.812;2023-12-07T00:55:10;97270.91;;;1.09;100.00
51261;BME280;61705;46.228;24.812;2023-12-07T00:57:40;97267.38;;;1.15;100.00
51261;BME280;61705;46.228;24.812;2023-12-07T01:00:18;97269.16;;;1.11;100.00
51261;BME280;61705;46.228;24.812;2023-12-07T01:02:47;97270.91;;;1.11;100.00
51261;BME280;61705;46.228;24.812;2023-12-07T01:05:17;97266.63;;;1.07;100.00
51261;BME280;61705;46.228;24.812;2023-12-07T01:07:44;97271.84;;;1.05;100.00
51261;BME280;61705;46.228;24.812;2023-12-07T01:10:10;97267.44;;;1.10;100.00
51261;BME280;61705;46.228;24.812;2023-12-07T01:12:39;97267.44;;;1.10;100.00
51261;BME280;61705;46.228;24.812;2023-12-07T01:15:11;97270.06;;;1.09;100.00
51261;BME280;61705;46.228;24.812;2023-12-07T01:17:40;97270.94;;;1.08;100.00
51261;BME280;61705;46.228;24.812;2023-12-07T01:20:07;97269.97;;;1.15;100.00
51261;BME280;61705;46.228;24.812;2023-12-07T01:22:40;97270.00;;;1.12;100.00
51261;BME280;61705;46.228;24.812;2023-12-07T01:25:10;97267.47;;;1.09;100.00
51261;BME280;61705;46.228;24.812;2023-12-07T01:27:37;97266.59;;;1.08;100.00
51261;BME280;61705;46.228;24.812;2023-12-07T01:30:04;97258.75;;;1.11;100.00
51261;BME280;61705;46.228;24.812;2023-12-07T01:32:33;97265.66;;;1.12;100.00
51261;BME280;61705;46.228;24.812;2023-12-07T01:35:00;97262.22;;;1.12;100.00
51261;BME280;61705;46.228;24.812;2023-12-07T01:37:27;97263.94;;;1.13;100.00
51261;BME280;61705;46.228;24.812;2023-12-07T01:39:57;97253.53;;;1.13;100.00
51261;BME280;61705;46.228;24.812;2023-12-07T01:42:23;97255.28;;;1.11;100.00
51261;BME280;61705;46.228;24.812;2023-12-07T01:44:51;97254.44;;;1.10;100.00
51261;BME280;61705;46.228;24.812;2023-12-07T01:47:20;97260.50;;;1.09;100.00
51261;BME280;61705;46.228;24.812;2023-12-07T01:49:49;97253.63;;;1.07;100.00
51261;BME280;61705;46.228;24.812;2023-12-07T01:52:16;97257.13;;;1.04;100.00
51261;BME280;61705;46.228;24.812;2023-12-07T01:54:43;97265.00;;;1.00;100.00
51261;BME280;61705;46.228;24.812;2023-12-07T01:57:10;97252.88;;;0.99;100.00
51261;BME280;61705;46.228;24.812;2023-12-07T01:59:39;97265.00;;;1.00;100.00
51261;BME280;61705;46.228;24.812;2023-12-07T02:02:06;97256.31;;;1.01;100.00
51261;BME280;61705;46.228;24.812;2023-12-07T02:04:32;97267.63;;;0.98;100.00
51261;BME280;61705;46.228;24.812;2023-12-07T02:07:00;97265.09;;;0.93;100.00
51261;BME280;61705;46.228;24.812;2023-12-07T02:09:30;97261.63;;;0.93;100.00
51261;BME280;61705;46.228;24.812;2023-12-07T02:12:02;97268.44;;;1.02;100.00
51261;BME280;61705;46.228;24.812;2023-12-07T02:14:29;97271.06;;;1.00;100.00
51261;BME280;61705;46.228;24.812;2023-12-07T02:17:07;97268.34;;;1.08;100.00
51261;BME280;61705;46.228;24.812;2023-12-07T02:22:27;97271.88;;;1.04;100.00
51261;BME280;61705;46.228;24.812;2023-12-07T02:25:14;97258.03;;;1.03;100.00
51261;BME280;61705;46.228;24.812;2023-12-07T02:27:42;97265.81;;;1.03;100.00
51261;BME280;61705;46.228;24.812;2023-12-07T02:30:09;97262.28;;;1.07;100.00
51261;BME280;61705;46.228;24.812;2023-12-07T02:32:41;97265.75;;;1.08;100.00
51261;BME280;61705;46.228;24.812;2023-12-07T02:35:09;97269.28;;;1.02;100.00
51261;BME280;61705;46.228;24.812;2023-12-07T02:37:44;97271.03;;;1.02;100.00
51261;BME280;61705;46.228;24.812;2023-12-07T02:40:12;97270.25;;;0.97;100.00
51261;BME280;61705;46.228;24.812;2023-12-07T02:42:41;97274.59;;;0.94;100.00
51261;BME280;61705;46.228;24.812;2023-12-07T02:45:12;97278.94;;;0.94;100.00
51261;BME280;61705;46.228;24.812;2023-12-07T02:47:39;97280.72;;;0.90;100.00
51261;BME280;61705;46.228;24.812;2023-12-07T02:50:07;97284.19;;;0.92;100.00
51261;BME280;61705;46.228;24.812;2023-12-07T02:52:36;97289.34;;;0.94;100.00
51261;BME280;61705;46.228;24.812;2023-12-07T02:55:05;97279.81;;;0.94;100.00
51261;BME280;61705;46.228;24.812;2023-12-07T02:57:34;97281.50;;;0.97;100.00
51261;BME280;61705;46.228;24.812;2023-12-07T03:00:04;97281.47;;;1.00;100.00
51261;BME280;61705;46.228;24.812;2023-12-07T03:02:35;97289.28;;;0.99;100.00
51261;BME280;61705;46.228;24.812;2023-12-07T03:05:01;97281.47;;;0.99;100.00
51261;BME280;61705;46.228;24.812;2023-12-07T03:07:30;97285.84;;;0.97;100.00
51261;BME280;61705;46.228;24.812;2023-12-07T03:09:56;97292.66;;;1.05;100.00
51261;BME280;61705;46.228;24.812;2023-12-07T03:12:29;97285.72;;;1.06;100.00
51261;BME280;61705;46.228;24.812;2023-12-07T03:15:01;97284.91;;;1.02;100.00
51261;BME280;61705;46.228;24.812;2023-12-07T03:17:27;97291.84;;;1.02;100.00
51261;BME280;61705;46.228;24.812;2023-12-07T03:19:54;97283.19;;;1.03;100.00
51261;BME280;61705;46.228;24.812;2023-12-07T03:22:20;97281.44;;;1.03;100.00
51261;BME280;61705;46.228;24.812;2023-12-07T03:24:49;97291.81;;;1.05;100.00
51261;BME280;61705;46.228;24.812;2023-12-07T03:27:18;97293.59;;;1.03;100.00
51261;BME280;61705;46.228;24.812;2023-12-07T03:29:45;97290.91;;;1.06;100.00
51261;BME280;61705;46.228;24.812;2023-12-07T03:32:12;97295.22;;;1.08;100.00
51261;BME280;61705;46.228;24.812;2023-12-07T03:34:39;97298.72;;;1.06;100.00
51261;BME280;61705;46.228;24.812;2023-12-07T03:37:05;97302.25;;;1.03;100.00
51261;BME280;61705;46.228;24.812;2023-12-07T03:39:35;97305.66;;;1.05;100.00
51261;BME280;61705;46.228;24.812;2023-12-07T03:42:07;97303.13;;;1.01;100.00
51261;BME280;61705;46.228;24.812;2023-12-07T03:44:53;97304.81;;;1.06;100.00
51261;BME280;61705;46.228;24.812;2023-12-07T03:47:22;97304.81;;;1.05;100.00
51261;BME280;61705;46.228;24.812;2023-12-07T03:49:49;97301.38;;;1.03;100.00
51261;BME280;61705;46.228;24.812;2023-12-07T03:52:15;97304.00;;;1.03;100.00
51261;BME280;61705;46.228;24.812;2023-12-07T03:54:45;97304.84;;;1.03;100.00
51261;BME280;61705;46.228;24.812;2023-12-07T03:57:12;97305.69;;;1.04;100.00
51261;BME280;61705;46.228;24.812;2023-12-07T03:59:44;97301.34;;;1.04;100.00
51261;BME280;61705;46.228;24.812;2023-12-07T04:02:12;97313.47;;;1.07;100.00
51261;BME280;61705;46.228;24.812;2023-12-07T04:04:41;97309.19;;;1.01;100.00
51261;BME280;61705;46.228;24.812;2023-12-07T04:07:10;97309.22;;;1.00;100.00
51261;BME280;61705;46.228;24.812;2023-12-07T04:09:36;97310.88;;;1.05;100.00
51261;BME280;61705;46.228;24.812;2023-12-07T04:12:03;97313.50;;;1.04;100.00
51261;BME280;61705;46.228;24.812;2023-12-07T04:14:30;97312.66;;;1.02;100.00
51261;BME280;61705;46.228;24.812;2023-12-07T04:16:58;97311.84;;;1.00;100.00
51261;BME280;61705;46.228;24.812;2023-12-07T04:19:25;97306.59;;;1.03;100.00
51261;BME280;61705;46.228;24.812;2023-12-07T04:21:51;97317.81;;;1.05;100.00
51261;BME280;61705;46.228;24.812;2023-12-07T04:24:20;97307.41;;;1.05;100.00
51261;BME280;61705;46.228;24.812;2023-12-07T04:26:47;97313.47;;;1.05;100.00
51261;BME280;61705;46.228;24.812;2023-12-07T04:29:15;97318.66;;;1.07;100.00
51261;BME280;61705;46.228;24.812;2023-12-07T04:31:44;97323.84;;;1.08;100.00
51261;BME280;61705;46.228;24.812;2023-12-07T04:34:11;97322.06;;;1.12;100.00
51261;BME280;61705;46.228;24.812;2023-12-07T04:36:40;97331.66;;;1.10;100.00
51261;BME280;61705;46.228;24.812;2023-12-07T04:39:07;97332.44;;;1.15;100.00
51261;BME280;61705;46.228;24.812;2023-12-07T04:41:34;97329.75;;;1.19;100.00
51261;BME280;61705;46.228;24.812;2023-12-07T04:44:03;97324.50;;;1.23;100.00
51261;BME280;61705;46.228;24.812;2023-12-07T04:46:30;97334.03;;;1.25;100.00
51261;BME280;61705;46.228;24.812;2023-12-07T04:48:57;97338.44;;;1.20;100.00
51261;BME280;61705;46.228;24.812;2023-12-07T04:51:24;97338.47;;;1.17;100.00
51261;BME280;61705;46.228;24.812;2023-12-07T04:53:54;97338.53;;;1.14;100.00
51261;BME280;61705;46.228;24.812;2023-12-07T04:56:31;97335.03;;;1.15;100.00
51261;BME280;61705;46.228;24.812;2023-12-07T04:59:02;97335.88;;;1.17;100.00
51261;BME280;61705;46.228;24.812;2023-12-07T05:01:30;97337.59;;;1.18;100.00
51261;BME280;61705;46.228;24.812;2023-12-07T05:04:06;97343.69;;;1.17;100.00
51261;BME280;61705;46.228;24.812;2023-12-07T05:06:33;97345.25;;;1.30;100.00
51261;BME280;61705;46.228;24.812;2023-12-07T05:09:00;97352.13;;;1.34;100.00
51261;BME280;61705;46.228;24.812;2023-12-07T05:11:30;97352.13;;;1.34;100.00
51261;BME280;61705;46.228;24.812;2023-12-07T05:13:57;97360.75;;;1.36;100.00
51261;BME280;61705;46.228;24.812;2023-12-07T05:16:24;97353.88;;;1.34;100.00
51261;BME280;61705;46.228;24.812;2023-12-07T05:18:50;97360.69;;;1.41;100.00
51261;BME280;61705;46.228;24.812;2023-12-07T05:21:20;97369.41;;;1.38;100.00
51261;BME280;61705;46.228;24.812;2023-12-07T05:23:47;97365.09;;;1.37;100.00
51261;BME280;61705;46.228;24.812;2023-12-07T05:26:13;97370.22;;;1.42;100.00
51261;BME280;61705;46.228;24.812;2023-12-07T05:28:41;97366.75;;;1.41;100.00
51261;BME280;61705;46.228;24.812;2023-12-07T05:31:19;97378.94;;;1.39;100.00
51261;BME280;61705;46.228;24.812;2023-12-07T05:33:50;97374.56;;;1.41;100.00
51261;BME280;61705;46.228;24.812;2023-12-07T05:36:17;97384.91;;;1.48;100.00
51261;BME280;61705;46.228;24.812;2023-12-07T05:38:44;97382.25;;;1.49;100.00
51261;BME280;61705;46.228;24.812;2023-12-07T05:41:10;97379.59;;;1.54;100.00
51261;BME280;61705;46.228;24.812;2023-12-07T05:43:40;97386.50;;;1.58;100.00
51261;BME280;61705;46.228;24.812;2023-12-07T05:46:08;97384.75;;;1.58;100.00
51261;BME280;61705;46.228;24.812;2023-12-07T05:48:35;97382.91;;;1.63;100.00
51261;BME280;61705;46.228;24.812;2023-12-07T05:51:02;97381.25;;;1.61;100.00
51261;BME280;61705;46.228;24.812;2023-12-07T05:53:28;97382.88;;;1.68;100.00
51261;BME280;61705;46.228;24.812;2023-12-07T05:55:56;97387.09;;;1.74;100.00
51261;BME280;61705;46.228;24.812;2023-12-07T05:58:25;97377.50;;;1.77;100.00
51261;BME280;61705;46.228;24.812;2023-12-07T06:00:53;97380.16;;;1.76;100.00
51261;BME280;61705;46.228;24.812;2023-12-07T06:03:21;97371.38;;;1.81;100.00
51261;BME280;61705;46.228;24.812;2023-12-07T06:05:51;97372.19;;;1.83;100.00
51261;BME280;61705;46.228;24.812;2023-12-07T06:08:19;97381.69;;;1.87;100.00
51261;BME280;61705;46.228;24.812;2023-12-07T06:10:46;97388.72;;;1.81;100.00
51261;BME280;61705;46.228;24.812;2023-12-07T06:13:13;97391.38;;;1.78;100.00
51261;BME280;61705;46.228;24.812;2023-12-07T06:15:40;97390.66;;;1.70;100.00
51261;BME280;61705;46.228;24.812;2023-12-07T06:18:07;97398.38;;;1.74;100.00
51261;BME280;61705;46.228;24.812;2023-12-07T06:20:39;97397.53;;;1.74;100.00
51261;BME280;61705;46.228;24.812;2023-12-07T06:23:09;97395.84;;;1.70;100.00
51261;BME280;61705;46.228;24.812;2023-12-07T06:25:39;97410.59;;;1.72;100.00
51261;BME280;61705;46.228;24.812;2023-12-07T06:28:06;97408.81;;;1.74;100.00
51261;BME280;61705;46.228;24.812;2023-12-07T06:30:35;97414.00;;;1.74;100.00
51261;BME280;61705;46.228;24.812;2023-12-07T06:33:06;97407.09;;;1.75;100.00
51261;BME280;61705;46.228;24.812;2023-12-07T06:35:33;97409.69;;;1.73;100.00
51261;BME280;61705;46.228;24.812;2023-12-07T06:37:59;97418.28;;;1.81;100.00
51261;BME280;61705;46.228;24.812;2023-12-07T06:40:28;97423.50;;;1.80;100.00
51261;BME280;61705;46.228;24.812;2023-12-07T06:42:55;97426.00;;;1.84;100.00
51261;BME280;61705;46.228;24.812;2023-12-07T06:45:24;97439.94;;;1.85;100.00
51261;BME280;61705;46.228;24.812;2023-12-07T06:47:51;97437.31;;;1.85;100.00
51261;BME280;61705;46.228;24.812;2023-12-07T06:50:18;97437.25;;;1.88;100.00
51261;BME280;61705;46.228;24.812;2023-12-07T06:52:50;97432.94;;;1.88;100.00
51261;BME280;61705;46.228;24.812;2023-12-07T06:55:16;97438.91;;;1.94;100.00
51261;BME280;61705;46.228;24.812;2023-12-07T06:57:44;97443.34;;;1.88;100.00
51261;BME280;61705;46.228;24.812;2023-12-07T07:00:14;97443.31;;;1.90;100.00
51261;BME280;61705;46.228;24.812;2023-12-07T07:02:42;97444.94;;;1.97;100.00
51261;BME280;61705;46.228;24.812;2023-12-07T07:05:14;97437.13;;;1.99;100.00
51261;BME280;61705;46.228;24.812;2023-12-07T07:07:41;97437.88;;;2.05;100.00
51261;BME280;61705;46.228;24.812;2023-12-07T07:10:09;97443.06;;;2.07;100.00
51261;BME280;61705;46.228;24.812;2023-12-07T07:12:37;97447.38;;;2.09;100.00
51261;BME280;61705;46.228;24.812;2023-12-07T07:15:06;97440.31;;;2.14;100.00
51261;BME280;61705;46.228;24.812;2023-12-07T07:17:35;97445.63;;;2.08;100.00
51261;BME280;61705;46.228;24.812;2023-12-07T07:20:02;97443.91;;;2.07;100.00
51261;BME280;61705;46.228;24.812;2023-12-07T07:22:28;97443.09;;;2.04;100.00
51261;BME280;61705;46.228;24.812;2023-12-07T07:24:55;97443.09;;;2.04;100.00
51261;BME280;61705;46.228;24.812;2023-12-07T07:27:23;97456.00;;;2.11;100.00
51261;BME280;61705;46.228;24.812;2023-12-07T07:29:51;97449.78;;;2.20;100.00
51261;BME280;61705;46.228;24.812;2023-12-07T07:32:18;97456.91;;;2.12;100.00
51261;BME280;61705;46.228;24.812;2023-12-07T07:34:47;97460.31;;;2.16;100.00
51261;BME280;61705;46.228;24.812;2023-12-07T07:37:17;97448.13;;;2.16;100.00
51261;BME280;61705;46.228;24.812;2023-12-07T07:39:45;97448.09;;;2.19;100.00
51261;BME280;61705;46.228;24.812;2023-12-07T07:42:19;97449.75;;;2.23;100.00
51261;BME280;61705;46.228;24.812;2023-12-07T07:44:48;97452.31;;;2.26;100.00
51261;BME280;61705;46.228;24.812;2023-12-07T07:47:15;97453.16;;;2.27;100.00
51261;BME280;61705;46.228;24.812;2023-12-07T07:49:42;97456.63;;;2.27;100.00
51261;BME280;61705;46.228;24.812;2023-12-07T07:52:08;97456.53;;;2.32;100.00
51261;BME280;61705;46.228;24.812;2023-12-07T07:54:35;97463.47;;;2.36;100.00
51261;BME280;61705;46.228;24.812;2023-12-07T07:57:03;97463.34;;;2.42;100.00
51261;BME280;61705;46.228;24.812;2023-12-07T07:59:30;97468.50;;;2.45;100.00
51261;BME280;61705;46.228;24.812;2023-12-07T08:01:57;97470.16;;;2.51;100.00
51261;BME280;61705;46.228;24.812;2023-12-07T08:04:24;97469.25;;;2.53;100.00
51261;BME280;61705;46.228;24.812;2023-12-07T08:06:51;97467.41;;;2.58;100.00
51261;BME280;61705;46.228;24.812;2023-12-07T08:09:17;97472.56;;;2.61;100.00
51261;BME280;61705;46.228;24.812;2023-12-07T08:11:44;97480.22;;;2.72;100.00
51261;BME280;61705;46.228;24.812;2023-12-07T08:14:11;97471.38;;;2.81;100.00
51261;BME280;61705;46.228;24.812;2023-12-07T08:16:37;97477.41;;;2.83;100.00
51261;BME280;61705;46.228;24.812;2023-12-07T08:19:06;97481.72;;;2.85;100.00
51261;BME280;61705;46.228;24.812;2023-12-07T08:21:33;97484.28;;;2.89;100.00
51261;BME280;61705;46.228;24.812;2023-12-07T08:24:01;97479.81;;;2.94;100.00
51261;BME280;61705;46.228;24.812;2023-12-07T08:26:28;97483.38;;;2.90;100.00
51261;BME280;61705;46.228;24.812;2023-12-07T08:28:54;97480.78;;;2.90;100.00
51261;BME280;61705;46.228;24.812;2023-12-07T08:31:24;97470.63;;;2.74;100.00
51261;BME280;61705;46.228;24.812;2023-12-07T08:33:57;97475.53;;;2.90;100.00
51261;BME280;61705;46.228;24.812;2023-12-07T08:36:23;97477.97;;;3.00;100.00
51261;BME280;61705;46.228;24.812;2023-12-07T08:38:50;97477.97;;;3.00;100.00
51261;BME280;61705;46.228;24.812;2023-12-07T08:41:18;97479.50;;;3.11;100.00
51261;BME280;61705;46.228;24.812;2023-12-07T08:43:51;97477.69;;;3.16;100.00
51261;BME280;61705;46.228;24.812;2023-12-07T08:46:20;97475.94;;;3.16;100.00
51261;BME280;61705;46.228;24.812;2023-12-07T08:48:48;97479.19;;;3.27;100.00
51261;BME280;61705;46.228;24.812;2023-12-07T08:51:17;97478.25;;;3.30;100.00
51261;BME280;61705;46.228;24.812;2023-12-07T08:53:55;97482.66;;;3.28;100.00
51261;BME280;61705;46.228;24.812;2023-12-07T08:56:22;97477.38;;;3.31;100.00
51261;BME280;61705;46.228;24.812;2023-12-07T08:58:49;97477.34;;;3.32;100.00
51261;BME280;61705;46.228;24.812;2023-12-07T09:01:17;97469.47;;;3.34;100.00
51261;BME280;61705;46.228;24.812;2023-12-07T09:03:57;97479.97;;;3.31;100.00
51261;BME280;61705;46.228;24.812;2023-12-07T09:06:24;97470.09;;;3.47;100.00
51261;BME280;61705;46.228;24.812;2023-12-07T09:08:54;97473.38;;;3.55;100.00
51261;BME280;61705;46.228;24.812;2023-12-07T09:11:22;97464.03;;;3.45;100.00
51261;BME280;61705;46.228;24.812;2023-12-07T09:13:49;97465.84;;;3.41;100.00
51261;BME280;61705;46.228;24.812;2023-12-07T09:16:16;97457.25;;;3.36;100.00
51261;BME280;61705;46.228;24.812;2023-12-07T09:18:43;97452.78;;;3.43;100.00
51261;BME280;61705;46.228;24.812;2023-12-07T09:21:11;97443.34;;;3.36;100.00
51261;BME280;61705;46.228;24.812;2023-12-07T09:23:39;97444.09;;;3.42;100.00
51261;BME280;61705;46.228;24.812;2023-12-07T09:26:07;97443.13;;;3.45;100.00
51261;BME280;61705;46.228;24.812;2023-12-07T09:28:34;97441.41;;;3.44;100.00
51261;BME280;61705;46.228;24.812;2023-12-07T09:31:01;97445.50;;;3.55;100.00
51261;BME280;61705;46.228;24.812;2023-12-07T09:33:28;97443.63;;;3.62;100.00
51261;BME280;61705;46.228;24.812;2023-12-07T09:35:58;97444.94;;;3.83;100.00
51261;BME280;61705;46.228;24.812;2023-12-07T09:38:25;97440.81;;;3.71;100.00
51261;BME280;61705;46.228;24.812;2023-12-07T09:40:54;97434.38;;;3.86;100.00
51261;BME280;61705;46.228;24.812;2023-12-07T09:43:21;97444.03;;;3.84;100.00
51261;BME280;61705;46.228;24.812;2023-12-07T09:45:48;97443.13;;;3.87;100.00
51261;BME280;61705;46.228;24.812;2023-12-07T09:48:16;97440.28;;;3.96;100.00
51261;BME280;61705;46.228;24.812;2023-12-07T09:50:43;97428.78;;;4.03;100.00
51261;BME280;61705;46.228;24.812;2023-12-07T09:53:10;97432.41;;;3.97;100.00
51261;BME280;61705;46.228;24.812;2023-12-07T09:55:37;97438.50;;;3.96;100.00
51261;BME280;61705;46.228;24.812;2023-12-07T09:58:05;97436.59;;;4.03;100.00
51261;BME280;61705;46.228;24.812;2023-12-07T10:00:34;97432.09;;;4.10;100.00
51261;BME280;61705;46.228;24.812;2023-12-07T10:03:01;97432.94;;;4.10;100.00
51261;BME280;61705;46.228;24.812;2023-12-07T10:05:29;97441.78;;;4.06;100.00
51261;BME280;61705;46.228;24.812;2023-12-07T10:07:56;97438.50;;;3.96;99.56
51261;BME280;61705;46.228;24.812;2023-12-07T10:10:23;97433.47;;;3.89;98.99
51261;BME280;61705;46.228;24.812;2023-12-07T10:12:53;97431.38;;;4.04;99.65
51261;BME280;61705;46.228;24.812;2023-12-07T10:15:21;97431.06;;;4.17;99.94
51261;BME280;61705;46.228;24.812;2023-12-07T10:17:50;97431.94;;;4.17;100.00
51261;BME280;61705;46.228;24.812;2023-12-07T10:20:17;97426.72;;;4.17;100.00
51261;BME280;61705;46.228;24.812;2023-12-07T10:22:47;97431.06;;;4.17;100.00
51261;BME280;61705;46.228;24.812;2023-12-07T10:28:18;97428.63;;;4.11;100.00
51261;BME280;61705;46.228;24.812;2023-12-07T10:30:46;97424.25;;;4.11;100.00
51261;BME280;61705;46.228;24.812;2023-12-07T10:33:12;97429.66;;;4.02;99.94
51261;BME280;61705;46.228;24.812;2023-12-07T10:35:44;97426.38;;;3.94;99.46
51261;BME280;61705;46.228;24.812;2023-12-07T10:38:20;97427.38;;;3.90;99.23
51261;BME280;61705;46.228;24.812;2023-12-07T10:40:47;97427.84;;;4.06;100.00
51261;BME280;61705;46.228;24.812;2023-12-07T10:43:21;97428.06;;;3.96;99.63
51261;BME280;61705;46.228;24.812;2023-12-07T10:45:57;97418.47;;;3.97;99.25
51261;BME280;61705;46.228;24.812;2023-12-07T10:48:24;97420.13;;;3.99;99.17
51261;BME280;61705;46.228;24.812;2023-12-07T10:51:03;97416.47;;;4.07;99.69
51261;BME280;61705;46.228;24.812;2023-12-07T10:53:37;97420.91;;;4.04;99.74
51261;BME280;61705;46.228;24.812;2023-12-07T10:56:15;97427.84;;;4.06;99.93
51261;BME280;61705;46.228;24.812;2023-12-07T10:58:49;97420.59;;;4.17;100.00
51261;BME280;61705;46.228;24.812;2023-12-07T11:01:18;97420.53;;;4.20;100.00
51261;BME280;61705;46.228;24.812;2023-12-07T11:03:50;97420.34;;;4.27;100.00
51261;BME280;61705;46.228;24.812;2023-12-07T11:06:22;97414.94;;;4.34;100.00
51261;BME280;61705;46.228;24.812;2023-12-07T11:08:50;97418.69;;;4.23;99.46
51261;BME280;61705;46.228;24.812;2023-12-07T11:12:20;97413.44;;;4.25;99.13
51261;BME280;61705;46.228;24.812;2023-12-07T11:14:24;97416.00;;;4.26;98.28
51261;BME280;61705;46.228;24.812;2023-12-07T11:16:56;97416.84;;;4.28;97.98
51261;BME280;61705;46.228;24.812;2023-12-07T11:22:12;97412.88;;;4.48;98.13
51261;BME280;61705;46.228;24.812;2023-12-07T11:24:54;97416.50;;;4.41;97.50
51261;BME280;61705;46.228;24.812;2023-12-07T11:27:23;97408.44;;;4.50;97.55
51261;BME280;61705;46.228;24.812;2023-12-07T11:30:29;97409.84;;;4.63;97.80
51261;BME280;61705;46.228;24.812;2023-12-07T11:33:06;97410.13;;;4.53;96.84
51261;BME280;61705;46.228;24.812;2023-12-07T11:38:34;97411.38;;;4.72;97.76
51261;BME280;61705;46.228;24.812;2023-12-07T11:41:02;97405.47;;;4.64;97.52
51261;BME280;61705;46.228;24.812;2023-12-07T11:46:23;97403.91;;;4.57;96.88
51261;BME280;61705;46.228;24.812;2023-12-07T11:48:52;97395.97;;;4.60;97.02
51261;BME280;61705;46.228;24.812;2023-12-07T11:51:20;97401.06;;;4.66;97.14
51261;BME280;61705;46.228;24.812;2023-12-07T11:53:47;97402.53;;;4.76;97.58
51261;BME280;61705;46.228;24.812;2023-12-07T11:56:15;97410.50;;;4.71;97.46
51261;BME280;61705;46.228;24.812;2023-12-07T11:58:46;97412.38;;;4.66;97.01
51261;BME280;61705;46.228;24.812;2023-12-07T12:01:16;97411.69;;;4.60;96.59
51261;BME280;61705;46.228;24.812;2023-12-07T12:03:43;97408.38;;;4.53;96.43
51261;BME280;61705;46.228;24.812;2023-12-07T12:06:10;97418.75;;;4.56;96.61
51261;BME280;61705;46.228;24.812;2023-12-07T12:08:40;97415.16;;;4.60;97.01
51261;BME280;61705;46.228;24.812;2023-12-07T12:11:10;97412.53;;;4.62;97.40
51261;BME280;61705;46.228;24.812;2023-12-07T12:13:36;97410.84;;;4.59;97.19
51261;BME280;61705;46.228;24.812;2023-12-07T12:16:05;97412.53;;;4.60;97.27
51261;BME280;61705;46.228;24.812;2023-12-07T12:18:33;97413.75;;;4.47;96.77
51261;BME280;61705;46.228;24.812;2023-12-07T12:21:06;97415.63;;;4.42;96.72
51261;BME280;61705;46.228;24.812;2023-12-07T12:23:34;97413.88;;;4.42;96.86
51261;BME280;61705;46.228;24.812;2023-12-07T12:26:01;97413.81;;;4.45;96.75
51261;BME280;61705;46.228;24.812;2023-12-07T12:28:30;97411.88;;;4.52;96.82
51261;BME280;61705;46.228;24.812;2023-12-07T12:30:59;97411.81;;;4.55;97.27
51261;BME280;61705;46.228;24.812;2023-12-07T12:33:27;97413.53;;;4.56;97.83
51261;BME280;61705;46.228;24.812;2023-12-07T12:36:03;97417.00;;;4.57;98.03
51261;BME280;61705;46.228;24.812;2023-12-07T12:38:35;97420.72;;;4.48;98.15
51261;BME280;61705;46.228;24.812;2023-12-07T12:41:09;97418.84;;;4.53;98.20
51261;BME280;61705;46.228;24.812;2023-12-07T12:43:36;97420.53;;;4.54;98.23
51261;BME280;61705;46.228;24.812;2023-12-07T12:46:04;97418.91;;;4.50;97.59
51261;BME280;61705;46.228;24.812;2023-12-07T12:48:34;97419.47;;;4.61;98.08
51261;BME280;61705;46.228;24.812;2023-12-07T12:51:23;97419.66;;;4.55;98.04
51261;BME280;61705;46.228;24.812;2023-12-07T12:53:48;97427.31;;;4.63;98.26
51261;BME280;61705;46.228;24.812;2023-12-07T12:56:18;97417.06;;;4.55;97.50
51261;BME280;61705;46.228;24.812;2023-12-07T12:58:47;97418.06;;;4.49;97.13
51261;BME280;61705;46.228;24.812;2023-12-07T13:01:17;97419.47;;;4.61;97.71
51261;BME280;61705;46.228;24.812;2023-12-07T13:03:47;97426.47;;;4.62;97.74
51261;BME280;61705;46.228;24.812;2023-12-07T13:06:14;97422.09;;;4.61;97.88
51261;BME280;61705;46.228;24.812;2023-12-07T13:08:45;97428.03;;;4.68;97.90
51261;BME280;61705;46.228;24.812;2023-12-07T13:11:18;97422.81;;;4.68;97.91
51261;BME280;61705;46.228;24.812;2023-12-07T13:13:45;97426.41;;;4.64;97.73
51261;BME280;61705;46.228;24.812;2023-12-07T13:16:15;97431.53;;;4.68;97.84